createdAt,value
2022-10-21T00:01:15.253Z,14.80
2022-10-21T00:03:44.664Z,14.80
2022-10-21T00:06:11.736Z,14.80
2022-10-21T00:08:38.945Z,14.80
2022-10-21T00:11:06.920Z,14.80
2022-10-21T00:13:35.108Z,14.80
2022-10-21T00:16:03.203Z,14.80
2022-10-21T00:18:30.504Z,14.80
2022-10-21T00:20:57.198Z,14.80
2022-10-21T00:23:23.906Z,14.90
2022-10-21T00:25:50.471Z,14.90
2022-10-21T00:28:17.014Z,14.90
2022-10-21T00:30:44.970Z,14.90
2022-10-21T00:33:12.416Z,14.90
2022-10-21T00:35:39.093Z,14.90
2022-10-21T00:38:05.807Z,14.90
2022-10-21T00:40:33.290Z,15.00
2022-10-21T00:43:00.098Z,14.90
2022-10-21T00:45:27.970Z,14.90
2022-10-21T00:47:59.725Z,14.90
2022-10-21T00:50:32.563Z,15.00
2022-10-21T00:53:00.547Z,15.00
2022-10-21T00:55:32.162Z,15.00
2022-10-21T00:58:02.167Z,15.00
2022-10-21T01:00:28.847Z,14.90
2022-10-21T01:02:55.758Z,15.00
2022-10-21T01:05:25.518Z,14.90
2022-10-21T01:07:52.195Z,15.00
2022-10-21T01:10:18.903Z,14.90
2022-10-21T01:13:11.784Z,15.00
2022-10-21T01:15:47.523Z,14.90
2022-10-21T01:18:36.907Z,14.90
2022-10-21T01:21:08.289Z,14.90
2022-10-21T01:23:51.109Z,14.90
2022-10-21T01:26:36.506Z,14.90
2022-10-21T01:29:29.520Z,14.90
2022-10-21T01:32:03.108Z,14.90
2022-10-21T01:34:42.008Z,14.90
2022-10-21T01:37:18.410Z,14.90
2022-10-21T01:39:56.188Z,14.90
2022-10-21T01:42:30.996Z,14.90
2022-10-21T01:44:57.567Z,14.80
2022-10-21T01:47:47.513Z,14.80
2022-10-21T01:50:22.034Z,14.80
2022-10-21T01:52:50.069Z,14.80
2022-10-21T01:55:19.170Z,14.80
2022-10-21T01:57:53.785Z,14.80
2022-10-21T02:00:23.081Z,14.80
2022-10-21T02:02:52.214Z,14.80
2022-10-21T02:05:27.830Z,14.80
2022-10-21T02:07:54.616Z,14.80
2022-10-21T02:10:21.746Z,14.80
2022-10-21T02:12:49.640Z,14.80
2022-10-21T02:15:21.102Z,14.80
2022-10-21T02:17:54.513Z,14.80
2022-10-21T02:20:22.297Z,14.90
2022-10-21T02:22:49.066Z,14.80
2022-10-21T02:25:23.718Z,14.80
2022-10-21T02:27:50.500Z,14.90
2022-10-21T02:30:17.192Z,14.90
2022-10-21T02:32:52.815Z,14.90
2022-10-21T02:35:22.501Z,14.90
2022-10-21T02:37:52.183Z,14.90
2022-10-21T02:40:22.426Z,14.80
2022-10-21T02:42:59.784Z,14.90
2022-10-21T02:45:29.262Z,14.80
2022-10-21T02:47:58.188Z,14.90
2022-10-21T02:50:24.809Z,14.90
2022-10-21T02:52:51.398Z,14.90
2022-10-21T02:55:18.010Z,14.80
2022-10-21T02:57:44.667Z,14.90
2022-10-21T03:00:11.662Z,14.80
2022-10-21T03:02:38.201Z,14.80
2022-10-21T03:05:07.226Z,14.80
2022-10-21T03:07:36.473Z,14.80
2022-10-21T03:10:05.740Z,14.80
2022-10-21T03:12:32.374Z,14.80
2022-10-21T03:15:01.327Z,14.80
2022-10-21T03:17:30.282Z,14.80
2022-10-21T03:19:57.366Z,14.80
2022-10-21T03:22:23.936Z,14.80
2022-10-21T03:24:52.919Z,14.80
2022-10-21T03:27:22.044Z,14.70
2022-10-21T03:29:50.869Z,14.80
2022-10-21T03:32:17.449Z,14.80
2022-10-21T03:34:44.007Z,14.80
2022-10-21T03:37:10.588Z,14.70
2022-10-21T03:39:37.139Z,14.70
2022-10-21T03:42:03.733Z,14.70
2022-10-21T03:44:30.285Z,14.80
2022-10-21T03:46:59.235Z,14.80
2022-10-21T03:49:25.881Z,14.80
2022-10-21T03:51:52.514Z,14.80
2022-10-21T03:54:19.206Z,14.80
2022-10-21T03:56:48.070Z,14.70
2022-10-21T03:59:14.742Z,14.70
2022-10-21T04:01:43.854Z,14.70
2022-10-21T04:04:10.729Z,14.80
2022-10-21T04:06:37.316Z,14.80
2022-10-21T04:09:06.322Z,14.80
2022-10-21T04:11:37.676Z,14.80
2022-10-21T04:14:04.323Z,14.80
2022-10-21T04:16:30.899Z,14.80
2022-10-21T04:18:57.463Z,14.80
2022-10-21T04:23:55.604Z,14.80
2022-10-21T04:26:22.155Z,14.90
2022-10-21T04:28:51.254Z,14.90
2022-10-21T04:31:17.827Z,14.80
2022-10-21T04:33:44.387Z,14.90
2022-10-21T04:36:10.936Z,14.90
2022-10-21T04:38:37.529Z,14.90
2022-10-21T04:41:04.322Z,14.90
2022-10-21T04:43:33.039Z,14.90
2022-10-21T04:45:59.600Z,14.90
2022-10-21T04:48:26.196Z,14.90
2022-10-21T04:50:53.454Z,14.90
2022-10-21T04:53:20.622Z,14.90
2022-10-21T04:55:50.777Z,14.90
2022-10-21T04:58:21.909Z,14.90
2022-10-21T05:00:49.881Z,14.90
2022-10-21T05:03:16.458Z,14.90
2022-10-21T05:05:43.185Z,14.90
2022-10-21T05:08:11.645Z,14.90
2022-10-21T05:10:38.515Z,14.90
2022-10-21T05:13:06.118Z,14.90
2022-10-21T05:15:33.261Z,14.90
2022-10-21T05:17:59.922Z,14.90
2022-10-21T05:20:26.476Z,14.90
2022-10-21T05:22:53.517Z,15.00
2022-10-21T05:25:20.547Z,15.00
2022-10-21T05:27:47.134Z,15.00
2022-10-21T05:30:14.109Z,15.00
2022-10-21T05:32:41.466Z,15.00
2022-10-21T05:35:08.333Z,15.00
2022-10-21T05:37:34.895Z,14.90
2022-10-21T05:40:01.627Z,14.90
2022-10-21T05:42:28.249Z,14.90
2022-10-21T05:44:54.920Z,14.90
2022-10-21T05:47:21.568Z,14.90
2022-10-21T05:49:50.573Z,14.90
2022-10-21T05:52:19.526Z,14.80
2022-10-21T05:54:46.189Z,14.80
2022-10-21T05:57:12.792Z,14.80
2022-10-21T05:59:39.363Z,14.80
2022-10-21T06:02:05.898Z,14.90
2022-10-21T06:04:36.449Z,14.90
2022-10-21T06:07:05.588Z,14.90
2022-10-21T06:09:34.606Z,14.90
2022-10-21T06:12:03.556Z,14.90
2022-10-21T06:14:30.152Z,14.90
2022-10-21T06:16:56.696Z,14.90
2022-10-21T06:19:23.313Z,14.90
2022-10-21T06:21:49.950Z,14.90
2022-10-21T06:24:16.535Z,14.90
2022-10-21T06:26:45.657Z,14.90
2022-10-21T06:29:13.470Z,14.90
2022-10-21T06:31:40.035Z,14.90
2022-10-21T06:34:06.619Z,14.90
2022-10-21T06:36:33.375Z,14.90
2022-10-21T06:39:02.348Z,14.90
2022-10-21T06:41:28.913Z,15.00
2022-10-21T06:43:57.998Z,15.00
2022-10-21T06:46:24.866Z,15.00
2022-10-21T06:48:51.488Z,15.00
2022-10-21T06:51:19.698Z,15.00
2022-10-21T06:53:46.679Z,15.00
2022-10-21T06:56:14.633Z,15.00
2022-10-21T06:58:46.414Z,15.00
2022-10-21T07:01:27.536Z,15.00
2022-10-21T07:04:01.538Z,15.00
2022-10-21T07:06:30.970Z,15.00
2022-10-21T07:08:58.582Z,15.10
2022-10-21T07:11:26.451Z,15.10
2022-10-21T07:13:53.046Z,15.10
2022-10-21T07:16:24.226Z,15.10
2022-10-21T07:18:50.959Z,15.10
2022-10-21T07:21:19.014Z,15.10
2022-10-21T07:23:46.521Z,15.10
2022-10-21T07:26:13.738Z,15.10
2022-10-21T07:28:41.920Z,15.20
2022-10-21T07:31:10.992Z,15.20
2022-10-21T07:33:37.558Z,15.20
2022-10-21T07:36:08.613Z,15.20
2022-10-21T07:38:35.295Z,15.40
2022-10-21T07:41:02.444Z,15.50
2022-10-21T07:43:29.172Z,15.50
2022-10-21T07:45:56.935Z,15.50
2022-10-21T07:48:23.579Z,15.60
2022-10-21T07:50:50.617Z,15.50
2022-10-21T07:53:17.962Z,15.60
2022-10-21T07:55:44.811Z,15.70
2022-10-21T07:58:11.386Z,15.60
2022-10-21T08:00:38.009Z,15.60
2022-10-21T08:03:04.686Z,15.60
2022-10-21T08:05:31.277Z,15.50
2022-10-21T08:07:58.875Z,15.50
2022-10-21T08:10:27.942Z,15.50
2022-10-21T08:12:54.495Z,15.50
2022-10-21T08:15:23.543Z,15.50
2022-10-21T08:17:50.151Z,15.60
2022-10-21T08:20:16.949Z,15.50
2022-10-21T08:22:43.523Z,15.60
2022-10-21T08:25:11.687Z,15.50
2022-10-21T08:27:38.249Z,15.50
2022-10-21T08:30:07.647Z,15.60
2022-10-21T08:32:34.196Z,15.60
2022-10-21T08:35:00.796Z,15.60
2022-10-21T08:37:27.448Z,15.50
2022-10-21T08:39:54.040Z,15.50
2022-10-21T08:42:20.723Z,15.50
2022-10-21T08:44:59.498Z,15.50
2022-10-21T08:47:52.659Z,15.50
2022-10-21T08:50:21.449Z,15.50
2022-10-21T08:52:50.798Z,15.50
2022-10-21T08:55:23.840Z,15.50
2022-10-21T08:57:51.189Z,15.40
2022-10-21T09:00:21.998Z,15.50
2022-10-21T09:02:48.579Z,15.50
2022-10-21T09:05:21.741Z,15.50
2022-10-21T09:07:51.101Z,15.40
2022-10-21T09:10:33.529Z,15.50
2022-10-21T09:13:26.444Z,15.40
2022-10-21T09:16:06.421Z,15.50
2022-10-21T09:18:44.069Z,15.40
2022-10-21T09:21:28.255Z,15.50
2022-10-21T09:23:58.000Z,15.50
2022-10-21T09:26:32.697Z,15.50
2022-10-21T09:29:02.574Z,15.50
2022-10-21T09:31:29.354Z,15.50
2022-10-21T09:33:59.250Z,15.50
2022-10-21T09:36:39.136Z,15.60
2022-10-21T09:39:14.724Z,15.50
2022-10-21T09:41:46.596Z,15.50
2022-10-21T09:44:22.907Z,15.60
2022-10-21T09:46:51.260Z,15.50
2022-10-21T09:52:19.040Z,15.50
2022-10-21T09:54:51.055Z,15.60
2022-10-21T09:57:31.380Z,15.60
2022-10-21T10:00:06.204Z,15.60
2022-10-21T10:02:40.229Z,15.60
2022-10-21T10:05:36.517Z,15.60
2022-10-21T10:08:22.398Z,15.70
2022-10-21T10:10:49.071Z,15.60
2022-10-21T10:13:19.202Z,15.70
2022-10-21T10:15:46.078Z,15.50
2022-10-21T10:18:22.375Z,15.60
2022-10-21T10:21:24.540Z,15.60
2022-10-21T10:23:56.657Z,15.60
2022-10-21T10:26:29.043Z,15.60
2022-10-21T10:28:58.444Z,15.70
2022-10-21T10:31:27.460Z,15.70
2022-10-21T10:33:58.799Z,15.70
2022-10-21T10:36:31.201Z,15.70
2022-10-21T10:38:58.806Z,15.70
2022-10-21T10:41:30.895Z,15.70
2022-10-21T10:43:57.924Z,15.70
2022-10-21T10:46:32.393Z,15.80
2022-10-21T10:49:04.440Z,15.80
2022-10-21T10:51:35.004Z,15.80
2022-10-21T10:54:21.954Z,15.80
2022-10-21T10:56:48.484Z,15.80
2022-10-21T10:59:24.217Z,15.90
2022-10-21T11:01:56.874Z,16.00
2022-10-21T11:04:35.044Z,16.00
2022-10-21T11:07:10.961Z,16.10
2022-10-21T11:09:37.542Z,16.10
2022-10-21T11:12:06.209Z,16.10
2022-10-21T11:14:32.775Z,16.20
2022-10-21T11:17:19.157Z,16.20
2022-10-21T11:19:54.846Z,16.30
2022-10-21T11:22:31.284Z,16.30
2022-10-21T11:25:07.144Z,16.30
2022-10-21T11:27:40.134Z,16.40
2022-10-21T11:30:16.194Z,16.50
2022-10-21T11:33:03.668Z,16.60
2022-10-21T11:35:45.851Z,16.60
2022-10-21T11:38:17.906Z,16.70
2022-10-21T11:40:47.613Z,16.70
2022-10-21T11:43:20.316Z,16.80
2022-10-21T11:45:52.770Z,16.80
2022-10-21T11:48:40.893Z,17.00
2022-10-21T11:53:41.249Z,17.20
2022-10-21T11:56:13.970Z,17.30
2022-10-21T11:58:46.615Z,18.60
2022-10-21T12:01:14.861Z,17.60
2022-10-21T12:03:54.028Z,17.70
2022-10-21T12:06:32.130Z,17.80
2022-10-21T12:09:18.967Z,17.80
2022-10-21T12:11:51.302Z,17.90
2022-10-21T12:14:31.020Z,17.80
2022-10-21T12:17:00.814Z,17.90
2022-10-21T12:19:27.857Z,17.80
2022-10-21T12:21:54.510Z,18.20
2022-10-21T12:24:21.251Z,18.20
2022-10-21T12:26:51.587Z,18.20
2022-10-21T12:29:26.331Z,18.30
2022-10-21T12:32:02.142Z,18.20
2022-10-21T12:34:31.564Z,18.30
2022-10-21T12:37:02.032Z,18.20
2022-10-21T12:39:34.741Z,18.10
2022-10-21T12:42:10.487Z,18.00
2022-10-21T12:44:37.834Z,18.10
2022-10-21T12:47:20.569Z,18.10
2022-10-21T12:49:47.166Z,18.00
2022-10-21T12:52:23.561Z,18.00
2022-10-21T12:55:00.528Z,18.00
2022-10-21T12:57:34.269Z,18.00
2022-10-21T13:00:19.581Z,18.10
2022-10-21T13:03:05.979Z,18.00
2022-10-21T13:05:38.315Z,18.00
2022-10-21T13:08:20.197Z,18.20
2022-10-21T13:11:05.245Z,18.20
2022-10-21T13:13:35.897Z,18.40
2022-10-21T13:16:20.809Z,18.50
2022-10-21T13:18:50.603Z,18.30
2022-10-21T13:21:23.292Z,18.50
2022-10-21T13:23:51.559Z,18.40
2022-10-21T13:26:19.594Z,18.30
2022-10-21T13:28:58.515Z,18.30
2022-10-21T13:31:25.224Z,18.30
2022-10-21T13:33:55.765Z,18.30
2022-10-21T13:39:19.035Z,18.40
2022-10-21T13:41:45.712Z,18.40
2022-10-21T13:44:29.829Z,18.40
2022-10-21T13:46:56.512Z,18.50
2022-10-21T13:49:28.143Z,18.50
2022-10-21T13:51:54.734Z,18.50
2022-10-21T13:54:21.354Z,18.50
2022-10-21T13:56:48.190Z,18.60
2022-10-21T13:59:22.376Z,18.80
2022-10-21T14:01:57.877Z,19.00
2022-10-21T14:04:26.328Z,19.00
2022-10-21T14:06:55.211Z,19.10
2022-10-21T14:09:32.513Z,19.10
2022-10-21T14:12:04.558Z,18.90
2022-10-21T14:14:32.238Z,18.80
2022-10-21T14:17:07.952Z,18.80
2022-10-21T14:19:36.641Z,18.70
2022-10-21T14:22:04.317Z,18.80
2022-10-21T14:26:58.117Z,19.60
2022-10-21T14:29:25.990Z,20.10
2022-10-21T14:34:23.510Z,22.70
2022-10-21T14:37:11.147Z,23.50
2022-10-21T14:39:38.978Z,25.10
2022-10-21T14:42:12.171Z,26.10
2022-10-21T14:44:39.489Z,26.30
2022-10-21T14:47:18.405Z,25.60
2022-10-21T14:49:51.322Z,24.70
2022-10-21T14:52:22.598Z,23.10
2022-10-21T14:55:00.205Z,21.30
2022-10-21T14:57:47.531Z,21.00
2022-10-21T15:00:29.907Z,20.50
2022-10-21T15:03:00.366Z,19.90
2022-10-21T15:05:26.983Z,19.60
2022-10-21T15:08:13.561Z,19.40
2022-10-21T15:10:40.348Z,19.30
2022-10-21T15:13:16.814Z,19.20
2022-10-21T15:15:52.490Z,19.20
2022-10-21T15:18:23.239Z,18.90
2022-10-21T15:20:50.345Z,18.90
2022-10-21T15:23:20.270Z,18.90
2022-10-21T15:25:47.084Z,18.80
2022-10-21T15:28:17.708Z,18.80
2022-10-21T15:30:46.434Z,18.50
2022-10-21T15:33:13.077Z,18.40
2022-10-21T15:35:39.670Z,18.40
2022-10-21T15:38:11.415Z,18.40
2022-10-21T15:40:38.052Z,18.30
2022-10-21T15:43:04.663Z,18.30
2022-10-21T15:45:31.326Z,18.20
2022-10-21T15:47:57.940Z,18.10
2022-10-21T15:50:25.680Z,18.10
2022-10-21T15:52:52.546Z,18.10
2022-10-21T15:55:19.159Z,18.00
2022-10-21T15:57:45.751Z,18.00
2022-10-21T16:00:18.074Z,18.00
2022-10-21T16:02:48.584Z,17.90
2022-10-21T16:05:15.444Z,17.60
2022-10-21T16:07:44.314Z,17.80
2022-10-21T16:10:19.315Z,17.90
2022-10-21T16:12:46.044Z,17.80
2022-10-21T16:15:12.892Z,17.80
2022-10-21T16:17:42.551Z,17.80
2022-10-21T16:20:12.523Z,17.60
2022-10-21T16:25:06.490Z,17.30
2022-10-21T16:27:51.100Z,17.20
2022-10-21T16:30:23.417Z,17.20
2022-10-21T16:32:51.169Z,17.10
2022-10-21T16:35:18.798Z,17.10
2022-10-21T16:37:45.626Z,17.00
2022-10-21T16:40:17.410Z,16.90
2022-10-21T16:42:44.135Z,16.90
2022-10-21T16:45:10.905Z,16.90
2022-10-21T16:47:37.810Z,16.80
2022-10-21T16:50:04.745Z,16.80
2022-10-21T16:52:33.514Z,16.70
2022-10-21T16:55:00.190Z,16.70
2022-10-21T16:57:26.752Z,16.70
2022-10-21T16:59:53.430Z,16.60
2022-10-21T17:02:20.285Z,16.60
2022-10-21T17:04:49.864Z,16.50
2022-10-21T17:07:16.484Z,16.50
2022-10-21T17:09:43.093Z,16.50
2022-10-21T17:12:10.777Z,16.50
2022-10-21T17:14:37.347Z,16.50
2022-10-21T17:17:03.939Z,16.40
2022-10-21T17:19:30.513Z,16.40
2022-10-21T17:21:57.203Z,16.40
2022-10-21T17:24:23.953Z,16.30
2022-10-21T17:26:50.567Z,16.30
2022-10-21T17:29:17.221Z,16.20
2022-10-21T17:31:46.026Z,16.20
2022-10-21T17:34:25.395Z,16.20
2022-10-21T17:36:51.992Z,16.20
2022-10-21T17:39:18.573Z,16.10
2022-10-21T17:44:16.710Z,16.20
2022-10-21T17:46:43.377Z,16.10
2022-10-21T17:49:10.362Z,16.10
2022-10-21T17:51:44.378Z,16.10
2022-10-21T17:54:10.993Z,16.10
2022-10-21T17:56:37.581Z,16.10
2022-10-21T17:59:04.306Z,16.00
2022-10-21T18:01:30.996Z,16.00
2022-10-21T18:03:58.310Z,16.00
2022-10-21T18:06:25.369Z,16.00
2022-10-21T18:08:52.238Z,16.10
2022-10-21T18:11:19.608Z,16.00
2022-10-21T18:13:53.429Z,16.00
2022-10-21T18:16:36.510Z,16.00
2022-10-21T18:19:03.382Z,16.00
2022-10-21T18:21:33.552Z,16.00
2022-10-21T18:24:00.159Z,16.00
2022-10-21T18:26:31.279Z,16.00
2022-10-21T18:29:01.290Z,15.90
2022-10-21T18:31:29.893Z,15.90
2022-10-21T18:33:57.656Z,15.90
2022-10-21T18:36:24.477Z,15.90
2022-10-21T18:38:51.369Z,15.90
2022-10-21T18:41:20.856Z,15.80
2022-10-21T18:43:49.460Z,15.80
2022-10-21T18:46:16.098Z,15.80
2022-10-21T18:48:42.774Z,15.80
2022-10-21T18:51:15.431Z,15.70
2022-10-21T18:53:42.678Z,15.70
2022-10-21T18:56:10.437Z,15.70
2022-10-21T18:58:37.533Z,15.70
2022-10-21T19:01:04.651Z,15.70
2022-10-21T19:03:31.445Z,15.70
2022-10-21T19:06:13.770Z,15.70
2022-10-21T19:08:40.383Z,15.70
2022-10-21T19:11:06.974Z,15.70
2022-10-21T19:13:33.609Z,15.60
2022-10-21T19:16:00.229Z,15.60
2022-10-21T19:18:29.409Z,15.60
2022-10-21T19:20:58.420Z,15.50
2022-10-21T19:23:27.212Z,15.40
2022-10-21T19:25:53.802Z,15.40
2022-10-21T19:28:20.421Z,15.40
2022-10-21T19:30:47.027Z,15.40
2022-10-21T19:33:13.648Z,15.40
2022-10-21T19:35:42.474Z,15.40
2022-10-21T19:38:15.432Z,15.40
2022-10-21T19:43:18.502Z,15.40
2022-10-21T19:45:47.622Z,15.40
2022-10-21T19:48:16.243Z,15.40
2022-10-21T19:50:46.337Z,15.40
2022-10-21T19:53:12.985Z,15.40
2022-10-21T19:55:39.693Z,15.40
2022-10-21T19:58:06.358Z,15.50
2022-10-21T20:00:32.941Z,15.50
2022-10-21T20:03:00.791Z,15.40
2022-10-21T20:05:29.772Z,15.40
2022-10-21T20:07:56.362Z,15.40
2022-10-21T20:10:23.692Z,15.40
2022-10-21T20:12:50.253Z,15.30
2022-10-21T20:15:19.097Z,15.30
2022-10-21T20:17:45.796Z,15.30
2022-10-21T20:20:12.423Z,15.30
2022-10-21T20:22:41.540Z,15.30
2022-10-21T20:25:08.592Z,15.30
2022-10-21T20:27:35.223Z,15.30
2022-10-21T20:30:01.925Z,15.30
2022-10-21T20:32:28.628Z,15.30
2022-10-21T20:34:55.456Z,15.20
2022-10-21T20:37:22.208Z,15.20
2022-10-21T20:39:49.605Z,15.20
2022-10-21T20:42:16.372Z,15.30
2022-10-21T20:44:43.090Z,15.20
2022-10-21T20:47:10.960Z,15.20
2022-10-21T20:49:37.562Z,15.30
2022-10-21T20:52:05.942Z,15.20
2022-10-21T20:54:33.333Z,15.20
2022-10-21T20:56:59.961Z,15.30
2022-10-21T20:59:28.934Z,15.20
2022-10-21T21:01:55.570Z,15.20
2022-10-21T21:04:23.663Z,15.20
2022-10-21T21:06:51.146Z,15.20
2022-10-21T21:12:08.098Z,15.10
2022-10-21T21:14:34.746Z,15.10
2022-10-21T21:17:01.484Z,15.20
2022-10-21T21:19:28.078Z,15.10
2022-10-21T21:21:54.690Z,15.10
2022-10-21T21:24:21.444Z,15.10
2022-10-21T21:26:48.023Z,15.10
2022-10-21T21:29:14.915Z,15.00
2022-10-21T21:31:44.110Z,15.00
2022-10-21T21:34:13.172Z,15.00
2022-10-21T21:36:40.130Z,15.00
2022-10-21T21:39:07.659Z,15.00
2022-10-21T21:41:34.923Z,15.00
2022-10-21T21:44:01.534Z,15.10
2022-10-21T21:46:28.151Z,15.00
2022-10-21T21:49:01.109Z,15.10
2022-10-21T21:51:29.967Z,15.10
2022-10-21T21:53:56.739Z,15.10
2022-10-21T21:56:26.343Z,15.10
2022-10-21T21:58:54.906Z,15.20
2022-10-21T22:01:22.755Z,15.10
2022-10-21T22:03:51.674Z,15.10
2022-10-21T22:06:22.669Z,15.10
2022-10-21T22:08:49.430Z,15.10
2022-10-21T22:11:21.016Z,15.00
2022-10-21T22:13:47.725Z,15.00
2022-10-21T22:16:15.966Z,15.00
2022-10-21T22:18:43.143Z,15.00
2022-10-21T22:21:12.260Z,14.90
2022-10-21T22:23:38.875Z,14.90
2022-10-21T22:26:11.102Z,15.00
2022-10-21T22:28:38.138Z,14.90
2022-10-21T22:31:05.966Z,14.90
2022-10-21T22:33:32.660Z,15.00
2022-10-21T22:35:59.336Z,15.00
2022-10-21T22:38:25.907Z,15.10
2022-10-21T22:40:53.580Z,15.00
2022-10-21T22:43:20.274Z,15.00
2022-10-21T22:45:48.187Z,15.10
2022-10-21T22:48:15.508Z,15.10
2022-10-21T22:50:44.397Z,15.10
2022-10-21T22:53:11.069Z,15.10
2022-10-21T22:55:39.245Z,15.20
2022-10-21T22:58:06.070Z,15.20
2022-10-21T23:00:32.988Z,15.20
2022-10-21T23:02:59.554Z,15.10
2022-10-21T23:05:28.267Z,15.10
2022-10-21T23:07:54.810Z,15.00
2022-10-21T23:10:26.298Z,15.00
2022-10-21T23:12:52.849Z,15.00
2022-10-21T23:15:19.474Z,14.90
2022-10-21T23:17:46.094Z,14.90
2022-10-21T23:20:12.854Z,14.90
2022-10-21T23:22:39.678Z,14.90
2022-10-21T23:25:06.721Z,14.90
2022-10-21T23:27:35.671Z,14.90
2022-10-21T23:30:02.315Z,14.90
2022-10-21T23:32:28.889Z,14.90
2022-10-21T23:34:55.549Z,14.90
2022-10-21T23:37:22.135Z,14.90
2022-10-21T23:39:51.155Z,14.90
2022-10-21T23:42:17.773Z,14.90
2022-10-21T23:44:44.352Z,14.90
2022-10-21T23:47:10.901Z,14.90
2022-10-21T23:49:37.523Z,15.00
2022-10-21T23:52:06.070Z,14.90
2022-10-21T23:54:32.760Z,15.00
2022-10-21T23:57:04.075Z,15.00
2022-10-21T23:59:34.227Z,15.00
